sensor_id;sensor_type;location;lat;lon;timestamp;temperature;humidity
44271;DHT22;29963;44.594;11.368;2023-04-24T00:02:14;18.50;92.60
44271;DHT22;29963;44.594;11.368;2023-04-24T00:04:41;18.50;92.50
44271;DHT22;29963;44.594;11.368;2023-04-24T00:07:10;18.40;92.80
44271;DHT22;29963;44.594;11.368;2023-04-24T00:09:36;18.40;92.80
44271;DHT22;29963;44.594;11.368;2023-04-24T00:12:01;18.40;93.20
44271;DHT22;29963;44.594;11.368;2023-04-24T00:14:32;18.40;93.30
44271;DHT22;29963;44.594;11.368;2023-04-24T00:16:58;18.40;93.70
44271;DHT22;29963;44.594;11.368;2023-04-24T00:19:23;18.30;93.80
44271;DHT22;29963;44.594;11.368;2023-04-24T00:21:49;18.30;94.20
44271;DHT22;29963;44.594;11.368;2023-04-24T00:24:16;18.30;94.40
44271;DHT22;29963;44.594;11.368;2023-04-24T00:26:42;18.30;94.50
44271;DHT22;29963;44.594;11.368;2023-04-24T00:29:08;18.30;94.60
44271;DHT22;29963;44.594;11.368;2023-04-24T00:31:33;18.30;94.70
44271;DHT22;29963;44.594;11.368;2023-04-24T00:34:02;18.40;94.90
44271;DHT22;29963;44.594;11.368;2023-04-24T00:36:28;18.40;95.20
44271;DHT22;29963;44.594;11.368;2023-04-24T00:38:56;18.40;94.90
44271;DHT22;29963;44.594;11.368;2023-04-24T00:41:22;18.40;95.00
44271;DHT22;29963;44.594;11.368;2023-04-24T00:43:48;18.50;95.20
44271;DHT22;29963;44.594;11.368;2023-04-24T00:46:14;18.50;95.20
44271;DHT22;29963;44.594;11.368;2023-04-24T00:48:41;18.50;95.20
44271;DHT22;29963;44.594;11.368;2023-04-24T00:51:07;18.50;95.30
44271;DHT22;29963;44.594;11.368;2023-04-24T00:53:33;18.50;95.30
44271;DHT22;29963;44.594;11.368;2023-04-24T00:55:58;18.50;95.50
44271;DHT22;29963;44.594;11.368;2023-04-24T00:58:25;18.50;95.70
44271;DHT22;29963;44.594;11.368;2023-04-24T01:00:52;18.50;95.90
44271;DHT22;29963;44.594;11.368;2023-04-24T01:03:20;18.50;96.10
44271;DHT22;29963;44.594;11.368;2023-04-24T01:05:47;18.50;96.30
44271;DHT22;29963;44.594;11.368;2023-04-24T01:08:13;18.40;96.30
44271;DHT22;29963;44.594;11.368;2023-04-24T01:10:41;18.40;96.50
44271;DHT22;29963;44.594;11.368;2023-04-24T01:13:08;18.40;96.70
44271;DHT22;29963;44.594;11.368;2023-04-24T01:15:34;18.30;96.90
44271;DHT22;29963;44.594;11.368;2023-04-24T01:18:00;18.30;96.90
44271;DHT22;29963;44.594;11.368;2023-04-24T01:20:26;18.20;97.20
44271;DHT22;29963;44.594;11.368;2023-04-24T01:22:52;18.20;97.50
44271;DHT22;29963;44.594;11.368;2023-04-24T01:25:20;18.20;97.50
44271;DHT22;29963;44.594;11.368;2023-04-24T01:27:46;18.20;97.70
44271;DHT22;29963;44.594;11.368;2023-04-24T01:30:12;18.20;98.00
44271;DHT22;29963;44.594;11.368;2023-04-24T01:32:38;18.10;98.20
44271;DHT22;29963;44.594;11.368;2023-04-24T01:35:04;18.10;98.20
44271;DHT22;29963;44.594;11.368;2023-04-24T01:37:30;18.10;98.20
44271;DHT22;29963;44.594;11.368;2023-04-24T01:39:57;18.20;98.30
44271;DHT22;29963;44.594;11.368;2023-04-24T01:42:23;18.10;98.30
44271;DHT22;29963;44.594;11.368;2023-04-24T01:44:50;18.20;98.50
44271;DHT22;29963;44.594;11.368;2023-04-24T01:47:16;18.20;98.80
44271;DHT22;29963;44.594;11.368;2023-04-24T01:49:42;18.20;98.80
44271;DHT22;29963;44.594;11.368;2023-04-24T01:52:08;18.20;98.90
44271;DHT22;29963;44.594;11.368;2023-04-24T01:54:33;18.20;98.90
44271;DHT22;29963;44.594;11.368;2023-04-24T01:56:59;18.20;99.00
44271;DHT22;29963;44.594;11.368;2023-04-24T01:59:27;18.20;99.00
44271;DHT22;29963;44.594;11.368;2023-04-24T02:01:53;18.20;99.20
44271;DHT22;29963;44.594;11.368;2023-04-24T02:04:18;18.20;99.20
44271;DHT22;29963;44.594;11.368;2023-04-24T02:06:44;18.20;99.20
44271;DHT22;29963;44.594;11.368;2023-04-24T02:09:10;18.20;99.60
44271;DHT22;29963;44.594;11.368;2023-04-24T02:11:36;18.20;99.80
44271;DHT22;29963;44.594;11.368;2023-04-24T02:14:02;18.20;99.90
44271;DHT22;29963;44.594;11.368;2023-04-24T02:16:28;18.10;99.90
44271;DHT22;29963;44.594;11.368;2023-04-24T02:18:57;18.10;99.90
44271;DHT22;29963;44.594;11.368;2023-04-24T02:21:23;18.20;99.90
44271;DHT22;29963;44.594;11.368;2023-04-24T02:23:48;18.20;99.90
44271;DHT22;29963;44.594;11.368;2023-04-24T02:26:14;18.20;99.90
44271;DHT22;29963;44.594;11.368;2023-04-24T02:28:40;18.20;99.90
44271;DHT22;29963;44.594;11.368;2023-04-24T02:31:06;18.20;99.90
44271;DHT22;29963;44.594;11.368;2023-04-24T02:33:31;18.20;99.90
44271;DHT22;29963;44.594;11.368;2023-04-24T02:35:57;18.10;99.90
44271;DHT22;29963;44.594;11.368;2023-04-24T02:38:23;18.10;99.90
44271;DHT22;29963;44.594;11.368;2023-04-24T02:40:48;18.10;99.90
44271;DHT22;29963;44.594;11.368;2023-04-24T02:43:14;18.00;99.90
44271;DHT22;29963;44.594;11.368;2023-04-24T02:45:40;18.10;99.90
44271;DHT22;29963;44.594;11.368;2023-04-24T02:48:05;18.10;99.90
44271;DHT22;29963;44.594;11.368;2023-04-24T02:50:31;18.10;99.90
44271;DHT22;29963;44.594;11.368;2023-04-24T02:52:57;18.00;99.90
44271;DHT22;29963;44.594;11.368;2023-04-24T02:55:23;18.00;99.90
44271;DHT22;29963;44.594;11.368;2023-04-24T02:57:48;18.00;99.90
44271;DHT22;29963;44.594;11.368;2023-04-24T03:00:14;17.90;99.90
44271;DHT22;29963;44.594;11.368;2023-04-24T03:02:40;17.80;99.90
44271;DHT22;29963;44.594;11.368;2023-04-24T03:05:06;17.70;99.90
44271;DHT22;29963;44.594;11.368;2023-04-24T03:07:33;17.60;99.90
44271;DHT22;29963;44.594;11.368;2023-04-24T03:09:59;17.60;99.90
44271;DHT22;29963;44.594;11.368;2023-04-24T03:12:24;17.70;99.90
44271;DHT22;29963;44.594;11.368;2023-04-24T03:14:50;17.60;99.90
44271;DHT22;29963;44.594;11.368;2023-04-24T03:17:16;17.60;99.90
44271;DHT22;29963;44.594;11.368;2023-04-24T03:19:41;17.50;99.90
44271;DHT22;29963;44.594;11.368;2023-04-24T03:22:07;17.60;99.90
44271;DHT22;29963;44.594;11.368;2023-04-24T03:24:34;17.60;99.90
44271;DHT22;29963;44.594;11.368;2023-04-24T03:27:00;17.60;99.90
44271;DHT22;29963;44.594;11.368;2023-04-24T03:29:25;17.60;99.90
44271;DHT22;29963;44.594;11.368;2023-04-24T03:31:51;17.70;99.90
44271;DHT22;29963;44.594;11.368;2023-04-24T03:34:17;17.40;99.90
44271;DHT22;29963;44.594;11.368;2023-04-24T03:36:42;17.40;99.90
44271;DHT22;29963;44.594;11.368;2023-04-24T03:39:08;17.40;99.90
44271;DHT22;29963;44.594;11.368;2023-04-24T03:41:34;17.40;99.90
44271;DHT22;29963;44.594;11.368;2023-04-24T03:43:59;17.40;99.90
44271;DHT22;29963;44.594;11.368;2023-04-24T03:46:25;17.30;99.90
44271;DHT22;29963;44.594;11.368;2023-04-24T03:48:51;17.30;99.90
44271;DHT22;29963;44.594;11.368;2023-04-24T03:51:17;17.30;99.90
44271;DHT22;29963;44.594;11.368;2023-04-24T03:53:42;17.20;99.90
44271;DHT22;29963;44.594;11.368;2023-04-24T03:56:08;17.10;99.90
44271;DHT22;29963;44.594;11.368;2023-04-24T03:58:34;17.10;99.90
44271;DHT22;29963;44.594;11.368;2023-04-24T04:00:59;17.00;99.90
44271;DHT22;29963;44.594;11.368;2023-04-24T04:03:25;17.00;99.90
44271;DHT22;29963;44.594;11.368;2023-04-24T04:05:51;17.00;99.90
44271;DHT22;29963;44.594;11.368;2023-04-24T04:08:17;17.10;99.90
44271;DHT22;29963;44.594;11.368;2023-04-24T04:10:42;17.10;99.90
44271;DHT22;29963;44.594;11.368;2023-04-24T04:13:08;17.10;99.90
44271;DHT22;29963;44.594;11.368;2023-04-24T04:15:33;17.10;99.90
44271;DHT22;29963;44.594;11.368;2023-04-24T04:17:59;17.20;99.90
44271;DHT22;29963;44.594;11.368;2023-04-24T04:20:25;17.10;99.90
44271;DHT22;29963;44.594;11.368;2023-04-24T04:22:50;17.20;99.90
44271;DHT22;29963;44.594;11.368;2023-04-24T04:25:16;17.10;99.90
44271;DHT22;29963;44.594;11.368;2023-04-24T04:27:45;17.20;99.90
44271;DHT22;29963;44.594;11.368;2023-04-24T04:30:11;17.20;99.90
44271;DHT22;29963;44.594;11.368;2023-04-24T04:32:37;17.10;99.90
44271;DHT22;29963;44.594;11.368;2023-04-24T04:35:03;16.80;99.90
44271;DHT22;29963;44.594;11.368;2023-04-24T04:37:32;16.60;99.90
44271;DHT22;29963;44.594;11.368;2023-04-24T04:39:59;16.30;99.90
44271;DHT22;29963;44.594;11.368;2023-04-24T04:42:25;16.10;99.90
44271;DHT22;29963;44.594;11.368;2023-04-24T04:44:52;16.00;99.90
44271;DHT22;29963;44.594;11.368;2023-04-24T04:47:20;15.90;99.90
44271;DHT22;29963;44.594;11.368;2023-04-24T04:49:48;15.90;99.90
44271;DHT22;29963;44.594;11.368;2023-04-24T04:52:13;15.80;99.90
44271;DHT22;29963;44.594;11.368;2023-04-24T04:54:39;15.80;99.90
44271;DHT22;29963;44.594;11.368;2023-04-24T04:57:05;15.60;99.90
44271;DHT22;29963;44.594;11.368;2023-04-24T04:59:31;15.40;99.90
44271;DHT22;29963;44.594;11.368;2023-04-24T05:01:56;15.30;99.90
44271;DHT22;29963;44.594;11.368;2023-04-24T05:04:22;15.30;99.90
44271;DHT22;29963;44.594;11.368;2023-04-24T05:06:48;15.30;99.90
44271;DHT22;29963;44.594;11.368;2023-04-24T05:09:13;15.30;99.90
44271;DHT22;29963;44.594;11.368;2023-04-24T05:11:39;15.30;99.90
44271;DHT22;29963;44.594;11.368;2023-04-24T05:14:04;15.20;99.90
44271;DHT22;29963;44.594;11.368;2023-04-24T05:16:30;15.20;99.90
44271;DHT22;29963;44.594;11.368;2023-04-24T05:18:56;15.10;99.90
44271;DHT22;29963;44.594;11.368;2023-04-24T05:21:22;15.00;99.90
44271;DHT22;29963;44.594;11.368;2023-04-24T05:23:47;14.90;99.90
44271;DHT22;29963;44.594;11.368;2023-04-24T05:26:13;14.80;99.90
44271;DHT22;29963;44.594;11.368;2023-04-24T05:28:39;14.90;99.90
44271;DHT22;29963;44.594;11.368;2023-04-24T05:31:05;14.90;99.90
44271;DHT22;29963;44.594;11.368;2023-04-24T05:33:32;14.90;99.90
44271;DHT22;29963;44.594;11.368;2023-04-24T05:35:57;14.90;99.90
44271;DHT22;29963;44.594;11.368;2023-04-24T05:38:23;15.00;99.90
44271;DHT22;29963;44.594;11.368;2023-04-24T05:40:49;15.00;99.90
44271;DHT22;29963;44.594;11.368;2023-04-24T05:43:14;15.10;99.90
44271;DHT22;29963;44.594;11.368;2023-04-24T05:45:40;15.10;99.90
44271;DHT22;29963;44.594;11.368;2023-04-24T05:48:06;15.00;99.90
44271;DHT22;29963;44.594;11.368;2023-04-24T05:50:31;15.00;99.90
44271;DHT22;29963;44.594;11.368;2023-04-24T05:52:57;15.00;99.90
44271;DHT22;29963;44.594;11.368;2023-04-24T05:55:27;15.00;99.90
44271;DHT22;29963;44.594;11.368;2023-04-24T05:57:53;15.00;99.90
44271;DHT22;29963;44.594;11.368;2023-04-24T06:00:19;14.90;99.90
44271;DHT22;29963;44.594;11.368;2023-04-24T06:02:45;15.00;99.90
44271;DHT22;29963;44.594;11.368;2023-04-24T06:05:11;15.00;99.90
44271;DHT22;29963;44.594;11.368;2023-04-24T06:07:37;15.00;99.90
44271;DHT22;29963;44.594;11.368;2023-04-24T06:10:03;14.90;99.90
44271;DHT22;29963;44.594;11.368;2023-04-24T06:12:29;14.90;99.90
44271;DHT22;29963;44.594;11.368;2023-04-24T06:14:54;15.00;99.90
44271;DHT22;29963;44.594;11.368;2023-04-24T06:17:21;15.00;99.90
44271;DHT22;29963;44.594;11.368;2023-04-24T06:19:46;15.10;99.90
44271;DHT22;29963;44.594;11.368;2023-04-24T06:22:12;15.10;99.90
44271;DHT22;29963;44.594;11.368;2023-04-24T06:24:39;15.10;99.90
44271;DHT22;29963;44.594;11.368;2023-04-24T06:27:05;15.10;99.90
44271;DHT22;29963;44.594;11.368;2023-04-24T06:29:32;15.20;99.90
44271;DHT22;29963;44.594;11.368;2023-04-24T06:31:58;15.30;99.90
44271;DHT22;29963;44.594;11.368;2023-04-24T06:34:23;15.40;99.90
44271;DHT22;29963;44.594;11.368;2023-04-24T06:36:49;15.40;99.90
44271;DHT22;29963;44.594;11.368;2023-04-24T06:39:15;15.40;99.90
44271;DHT22;29963;44.594;11.368;2023-04-24T06:41:41;15.40;99.90
44271;DHT22;29963;44.594;11.368;2023-04-24T06:44:06;15.50;99.90
44271;DHT22;29963;44.594;11.368;2023-04-24T06:46:32;15.50;99.90
44271;DHT22;29963;44.594;11.368;2023-04-24T06:48:58;15.60;99.90
44271;DHT22;29963;44.594;11.368;2023-04-24T06:51:24;15.70;99.90
44271;DHT22;29963;44.594;11.368;2023-04-24T06:53:52;15.80;99.90
44271;DHT22;29963;44.594;11.368;2023-04-24T06:56:18;16.00;99.90
44271;DHT22;29963;44.594;11.368;2023-04-24T06:58:44;16.00;99.90
44271;DHT22;29963;44.594;11.368;2023-04-24T07:01:11;16.10;99.90
44271;DHT22;29963;44.594;11.368;2023-04-24T07:03:36;16.10;99.90
44271;DHT22;29963;44.594;11.368;2023-04-24T07:06:02;16.20;99.90
44271;DHT22;29963;44.594;11.368;2023-04-24T07:08:29;16.30;99.90
44271;DHT22;29963;44.594;11.368;2023-04-24T07:10:56;16.30;99.90
44271;DHT22;29963;44.594;11.368;2023-04-24T07:13:22;16.40;99.90
44271;DHT22;29963;44.594;11.368;2023-04-24T07:15:48;16.40;99.90
44271;DHT22;29963;44.594;11.368;2023-04-24T07:18:20;16.50;99.90
44271;DHT22;29963;44.594;11.368;2023-04-24T07:20:46;16.60;99.90
44271;DHT22;29963;44.594;11.368;2023-04-24T07:23:12;16.70;99.90
44271;DHT22;29963;44.594;11.368;2023-04-24T07:25:38;16.80;99.90
44271;DHT22;29963;44.594;11.368;2023-04-24T07:28:04;16.80;99.90
44271;DHT22;29963;44.594;11.368;2023-04-24T07:30:31;16.80;99.90
44271;DHT22;29963;44.594;11.368;2023-04-24T07:32:58;16.90;99.90
44271;DHT22;29963;44.594;11.368;2023-04-24T07:35:25;16.90;99.90
44271;DHT22;29963;44.594;11.368;2023-04-24T07:37:54;16.90;99.90
44271;DHT22;29963;44.594;11.368;2023-04-24T07:40:21;16.80;99.90
44271;DHT22;29963;44.594;11.368;2023-04-24T07:42:47;16.80;99.90
44271;DHT22;29963;44.594;11.368;2023-04-24T07:45:16;16.80;99.90
44271;DHT22;29963;44.594;11.368;2023-04-24T07:47:42;16.80;99.90
44271;DHT22;29963;44.594;11.368;2023-04-24T07:50:11;16.70;99.90
44271;DHT22;29963;44.594;11.368;2023-04-24T07:52:38;16.80;99.90
44271;DHT22;29963;44.594;11.368;2023-04-24T07:55:04;16.80;99.90
44271;DHT22;29963;44.594;11.368;2023-04-24T07:57:30;16.80;99.90
44271;DHT22;29963;44.594;11.368;2023-04-24T07:59:56;16.80;99.90
44271;DHT22;29963;44.594;11.368;2023-04-24T08:02:21;16.90;99.90
44271;DHT22;29963;44.594;11.368;2023-04-24T08:04:54;16.80;99.90
44271;DHT22;29963;44.594;11.368;2023-04-24T08:07:21;16.80;99.90
44271;DHT22;29963;44.594;11.368;2023-04-24T08:09:46;16.70;99.90
44271;DHT22;29963;44.594;11.368;2023-04-24T08:12:12;16.80;99.90
44271;DHT22;29963;44.594;11.368;2023-04-24T08:14:37;16.80;99.90
44271;DHT22;29963;44.594;11.368;2023-04-24T08:17:03;16.80;99.90
44271;DHT22;29963;44.594;11.368;2023-04-24T08:19:29;16.90;99.90
44271;DHT22;29963;44.594;11.368;2023-04-24T08:21:54;17.00;99.90
44271;DHT22;29963;44.594;11.368;2023-04-24T08:24:20;17.10;99.90
44271;DHT22;29963;44.594;11.368;2023-04-24T08:26:46;17.00;99.90
44271;DHT22;29963;44.594;11.368;2023-04-24T08:29:12;17.00;99.90
44271;DHT22;29963;44.594;11.368;2023-04-24T08:31:37;17.20;99.90
44271;DHT22;29963;44.594;11.368;2023-04-24T08:34:03;17.40;99.90
44271;DHT22;29963;44.594;11.368;2023-04-24T08:36:29;17.50;99.90
44271;DHT22;29963;44.594;11.368;2023-04-24T08:38:55;17.50;99.90
44271;DHT22;29963;44.594;11.368;2023-04-24T08:41:21;17.60;99.90
44271;DHT22;29963;44.594;11.368;2023-04-24T08:43:50;17.80;99.90
44271;DHT22;29963;44.594;11.368;2023-04-24T08:46:16;18.00;99.90
44271;DHT22;29963;44.594;11.368;2023-04-24T08:48:43;18.10;99.90
44271;DHT22;29963;44.594;11.368;2023-04-24T08:51:09;18.30;99.90
44271;DHT22;29963;44.594;11.368;2023-04-24T08:53:36;18.40;99.90
44271;DHT22;29963;44.594;11.368;2023-04-24T08:56:02;18.60;99.90
44271;DHT22;29963;44.594;11.368;2023-04-24T08:58:29;18.40;99.90
44271;DHT22;29963;44.594;11.368;2023-04-24T09:00:56;18.20;99.90
44271;DHT22;29963;44.594;11.368;2023-04-24T09:03:23;18.10;99.90
44271;DHT22;29963;44.594;11.368;2023-04-24T09:05:49;17.90;99.90
44271;DHT22;29963;44.594;11.368;2023-04-24T09:08:18;17.60;99.90
44271;DHT22;29963;44.594;11.368;2023-04-24T09:10:44;17.30;99.90
44271;DHT22;29963;44.594;11.368;2023-04-24T09:13:09;17.20;99.90
44271;DHT22;29963;44.594;11.368;2023-04-24T09:15:36;17.20;99.90
44271;DHT22;29963;44.594;11.368;2023-04-24T09:18:02;17.00;99.90
44271;DHT22;29963;44.594;11.368;2023-04-24T09:20:27;17.00;99.90
44271;DHT22;29963;44.594;11.368;2023-04-24T09:22:54;16.90;99.90
44271;DHT22;29963;44.594;11.368;2023-04-24T09:25:32;16.80;99.90
44271;DHT22;29963;44.594;11.368;2023-04-24T09:28:05;16.50;99.90
44271;DHT22;29963;44.594;11.368;2023-04-24T09:30:32;16.30;99.90
44271;DHT22;29963;44.594;11.368;2023-04-24T09:33:12;16.10;99.90
44271;DHT22;29963;44.594;11.368;2023-04-24T09:35:41;15.90;99.90
44271;DHT22;29963;44.594;11.368;2023-04-24T09:38:07;15.70;99.90
44271;DHT22;29963;44.594;11.368;2023-04-24T09:40:34;15.50;99.90
44271;DHT22;29963;44.594;11.368;2023-04-24T09:43:00;15.50;99.90
44271;DHT22;29963;44.594;11.368;2023-04-24T09:45:35;15.50;99.90
44271;DHT22;29963;44.594;11.368;2023-04-24T09:48:01;15.60;99.90
44271;DHT22;29963;44.594;11.368;2023-04-24T09:50:27;15.70;99.90
44271;DHT22;29963;44.594;11.368;2023-04-24T09:53:02;15.80;99.90
44271;DHT22;29963;44.594;11.368;2023-04-24T09:55:28;15.90;99.90
44271;DHT22;29963;44.594;11.368;2023-04-24T09:58:01;16.00;99.90
44271;DHT22;29963;44.594;11.368;2023-04-24T10:00:30;16.00;99.90
44271;DHT22;29963;44.594;11.368;2023-04-24T10:03:02;16.00;99.90
44271;DHT22;29963;44.594;11.368;2023-04-24T10:05:32;16.00;99.90
44271;DHT22;29963;44.594;11.368;2023-04-24T10:08:08;16.10;99.90
44271;DHT22;29963;44.594;11.368;2023-04-24T10:10:45;16.10;99.90
44271;DHT22;29963;44.594;11.368;2023-04-24T10:13:12;16.20;99.90
44271;DHT22;29963;44.594;11.368;2023-04-24T10:15:39;16.30;99.90
44271;DHT22;29963;44.594;11.368;2023-04-24T10:18:06;16.50;99.90
44271;DHT22;29963;44.594;11.368;2023-04-24T10:20:33;16.60;99.90
44271;DHT22;29963;44.594;11.368;2023-04-24T10:23:00;16.70;99.90
44271;DHT22;29963;44.594;11.368;2023-04-24T10:25:33;16.80;99.90
44271;DHT22;29963;44.594;11.368;2023-04-24T10:28:00;16.80;99.90
44271;DHT22;29963;44.594;11.368;2023-04-24T10:30:28;16.80;99.90
44271;DHT22;29963;44.594;11.368;2023-04-24T10:32:54;16.70;99.90
44271;DHT22;29963;44.594;11.368;2023-04-24T10:35:20;16.70;99.90
44271;DHT22;29963;44.594;11.368;2023-04-24T10:38:06;16.60;99.90
44271;DHT22;29963;44.594;11.368;2023-04-24T10:40:34;16.60;99.90
44271;DHT22;29963;44.594;11.368;2023-04-24T10:43:05;16.60;99.90
44271;DHT22;29963;44.594;11.368;2023-04-24T10:45:33;16.70;99.90
44271;DHT22;29963;44.594;11.368;2023-04-24T10:48:01;16.80;99.90
44271;DHT22;29963;44.594;11.368;2023-04-24T10:50:29;17.00;99.90
44271;DHT22;29963;44.594;11.368;2023-04-24T10:53:06;17.10;99.90
44271;DHT22;29963;44.594;11.368;2023-04-24T10:55:48;17.20;99.90
44271;DHT22;29963;44.594;11.368;2023-04-24T10:58:14;17.30;99.90
44271;DHT22;29963;44.594;11.368;2023-04-24T11:00:43;17.50;99.90
44271;DHT22;29963;44.594;11.368;2023-04-24T11:03:31;17.60;99.90
44271;DHT22;29963;44.594;11.368;2023-04-24T11:06:07;17.70;99.90
44271;DHT22;29963;44.594;11.368;2023-04-24T11:08:53;17.80;99.90
44271;DHT22;29963;44.594;11.368;2023-04-24T11:11:28;17.80;99.90
44271;DHT22;29963;44.594;11.368;2023-04-24T11:19:08;18.10;99.90
44271;DHT22;29963;44.594;11.368;2023-04-24T11:22:13;18.20;99.90
44271;DHT22;29963;44.594;11.368;2023-04-24T11:24:48;18.30;99.90
44271;DHT22;29963;44.594;11.368;2023-04-24T11:27:17;18.50;99.90
44271;DHT22;29963;44.594;11.368;2023-04-24T11:29:51;18.50;99.90
44271;DHT22;29963;44.594;11.368;2023-04-24T11:34:56;18.60;99.90
44271;DHT22;29963;44.594;11.368;2023-04-24T11:37:24;18.70;99.90
44271;DHT22;29963;44.594;11.368;2023-04-24T11:39:54;18.70;99.90
44271;DHT22;29963;44.594;11.368;2023-04-24T11:42:22;18.80;99.90
44271;DHT22;29963;44.594;11.368;2023-04-24T11:44:51;19.00;99.90
44271;DHT22;29963;44.594;11.368;2023-04-24T11:47:17;19.10;99.90
44271;DHT22;29963;44.594;11.368;2023-04-24T11:49:42;19.20;99.90
44271;DHT22;29963;44.594;11.368;2023-04-24T11:52:08;19.30;99.90
44271;DHT22;29963;44.594;11.368;2023-04-24T11:54:34;19.40;99.90
44271;DHT22;29963;44.594;11.368;2023-04-24T11:57:04;19.40;99.90
44271;DHT22;29963;44.594;11.368;2023-04-24T11:59:30;19.50;99.90
44271;DHT22;29963;44.594;11.368;2023-04-24T12:02:00;19.60;99.90
44271;DHT22;29963;44.594;11.368;2023-04-24T12:04:25;19.70;99.90
44271;DHT22;29963;44.594;11.368;2023-04-24T12:07:03;19.80;99.90
44271;DHT22;29963;44.594;11.368;2023-04-24T12:09:57;19.80;99.90
44271;DHT22;29963;44.594;11.368;2023-04-24T12:12:28;19.90;99.90
44271;DHT22;29963;44.594;11.368;2023-04-24T12:14:58;19.90;99.90
44271;DHT22;29963;44.594;11.368;2023-04-24T12:17:29;20.00;99.90
44271;DHT22;29963;44.594;11.368;2023-04-24T12:20:04;20.10;99.90
44271;DHT22;29963;44.594;11.368;2023-04-24T12:22:53;20.20;99.90
44271;DHT22;29963;44.594;11.368;2023-04-24T12:25:21;20.30;99.90
44271;DHT22;29963;44.594;11.368;2023-04-24T12:27:53;20.30;99.90
44271;DHT22;29963;44.594;11.368;2023-04-24T12:30:19;20.30;99.90
44271;DHT22;29963;44.594;11.368;2023-04-24T12:32:46;20.30;99.90
44271;DHT22;29963;44.594;11.368;2023-04-24T12:35:12;20.40;99.90
44271;DHT22;29963;44.594;11.368;2023-04-24T12:37:38;20.50;99.90
44271;DHT22;29963;44.594;11.368;2023-04-24T12:40:09;20.50;99.90
44271;DHT22;29963;44.594;11.368;2023-04-24T12:42:48;20.50;99.90
44271;DHT22;29963;44.594;11.368;2023-04-24T12:45:15;20.60;99.90
44271;DHT22;29963;44.594;11.368;2023-04-24T12:47:42;20.70;99.90
44271;DHT22;29963;44.594;11.368;2023-04-24T12:50:09;20.80;99.90
44271;DHT22;29963;44.594;11.368;2023-04-24T12:52:35;20.90;99.90
44271;DHT22;29963;44.594;11.368;2023-04-24T12:55:02;21.00;99.90
44271;DHT22;29963;44.594;11.368;2023-04-24T12:57:29;20.90;99.90
44271;DHT22;29963;44.594;11.368;2023-04-24T12:59:56;20.90;99.90
44271;DHT22;29963;44.594;11.368;2023-04-24T13:02:23;20.90;99.90
44271;DHT22;29963;44.594;11.368;2023-04-24T13:04:50;21.10;99.90
44271;DHT22;29963;44.594;11.368;2023-04-24T13:07:16;21.10;99.90
44271;DHT22;29963;44.594;11.368;2023-04-24T13:09:43;21.20;99.90
44271;DHT22;29963;44.594;11.368;2023-04-24T13:12:09;21.20;99.90
44271;DHT22;29963;44.594;11.368;2023-04-24T13:14:36;21.40;99.90
44271;DHT22;29963;44.594;11.368;2023-04-24T13:17:02;21.60;99.90
44271;DHT22;29963;44.594;11.368;2023-04-24T13:19:28;21.60;99.90
44271;DHT22;29963;44.594;11.368;2023-04-24T13:21:56;21.70;99.90
44271;DHT22;29963;44.594;11.368;2023-04-24T13:24:24;21.80;99.90
44271;DHT22;29963;44.594;11.368;2023-04-24T13:26:50;21.80;99.90
44271;DHT22;29963;44.594;11.368;2023-04-24T13:29:16;21.80;99.90
44271;DHT22;29963;44.594;11.368;2023-04-24T13:31:42;21.90;99.90
44271;DHT22;29963;44.594;11.368;2023-04-24T13:34:08;22.00;99.90
44271;DHT22;29963;44.594;11.368;2023-04-24T13:36:33;22.10;99.90
44271;DHT22;29963;44.594;11.368;2023-04-24T13:38:59;22.30;99.90
44271;DHT22;29963;44.594;11.368;2023-04-24T13:41:24;22.50;99.90
44271;DHT22;29963;44.594;11.368;2023-04-24T13:43:50;22.70;99.90
44271;DHT22;29963;44.594;11.368;2023-04-24T13:46:16;22.80;99.90
44271;DHT22;29963;44.594;11.368;2023-04-24T13:48:41;22.90;99.90
44271;DHT22;29963;44.594;11.368;2023-04-24T13:51:07;23.00;99.90
44271;DHT22;29963;44.594;11.368;2023-04-24T13:53:33;23.00;99.90
44271;DHT22;29963;44.594;11.368;2023-04-24T13:56:01;23.00;99.90
44271;DHT22;29963;44.594;11.368;2023-04-24T13:58:27;23.20;99.90
44271;DHT22;29963;44.594;11.368;2023-04-24T14:00:53;23.20;99.90
44271;DHT22;29963;44.594;11.368;2023-04-24T14:03:18;23.20;99.90
44271;DHT22;29963;44.594;11.368;2023-04-24T14:05:44;23.40;99.90
44271;DHT22;29963;44.594;11.368;2023-04-24T14:08:09;23.60;99.90
44271;DHT22;29963;44.594;11.368;2023-04-24T14:10:35;23.70;99.90
44271;DHT22;29963;44.594;11.368;2023-04-24T14:13:01;23.80;99.90
44271;DHT22;29963;44.594;11.368;2023-04-24T14:15:26;23.70;99.90
44271;DHT22;29963;44.594;11.368;2023-04-24T14:17:52;23.70;99.90
44271;DHT22;29963;44.594;11.368;2023-04-24T14:20:18;23.90;99.90
44271;DHT22;29963;44.594;11.368;2023-04-24T14:22:43;24.20;99.90
44271;DHT22;29963;44.594;11.368;2023-04-24T14:25:09;24.50;99.90
44271;DHT22;29963;44.594;11.368;2023-04-24T14:27:35;24.80;99.90
44271;DHT22;29963;44.594;11.368;2023-04-24T14:30:00;25.10;99.90
44271;DHT22;29963;44.594;11.368;2023-04-24T14:32:26;25.50;98.50
44271;DHT22;29963;44.594;11.368;2023-04-24T14:34:52;25.70;98.30
44271;DHT22;29963;44.594;11.368;2023-04-24T14:37:17;25.90;97.60
44271;DHT22;29963;44.594;11.368;2023-04-24T14:39:43;26.20;96.90
44271;DHT22;29963;44.594;11.368;2023-04-24T14:42:08;26.50;96.40
44271;DHT22;29963;44.594;11.368;2023-04-24T14:44:34;26.60;95.30
44271;DHT22;29963;44.594;11.368;2023-04-24T14:47:00;26.80;95.80
44271;DHT22;29963;44.594;11.368;2023-04-24T14:49:26;26.80;94.20
44271;DHT22;29963;44.594;11.368;2023-04-24T14:51:51;26.70;95.00
44271;DHT22;29963;44.594;11.368;2023-04-24T14:54:17;26.60;95.50
44271;DHT22;29963;44.594;11.368;2023-04-24T14:56:43;26.80;95.80
44271;DHT22;29963;44.594;11.368;2023-04-24T14:59:10;26.80;94.60
44271;DHT22;29963;44.594;11.368;2023-04-24T15:01:35;26.80;95.10
44271;DHT22;29963;44.594;11.368;2023-04-24T15:04:01;26.40;94.50
44271;DHT22;29963;44.594;11.368;2023-04-24T15:06:26;26.20;95.40
44271;DHT22;29963;44.594;11.368;2023-04-24T15:08:52;26.10;95.50
44271;DHT22;29963;44.594;11.368;2023-04-24T15:11:18;26.00;95.80
44271;DHT22;29963;44.594;11.368;2023-04-24T15:13:44;26.30;96.30
44271;DHT22;29963;44.594;11.368;2023-04-24T15:16:12;27.00;95.70
44271;DHT22;29963;44.594;11.368;2023-04-24T15:18:38;28.10;94.90
44271;DHT22;29963;44.594;11.368;2023-04-24T15:21:04;29.20;93.20
44271;DHT22;29963;44.594;11.368;2023-04-24T15:23:29;30.10;91.90